sensor_id;sensor_type;location;lat;lon;timestamp;pressure;altitude;pressure_sealevel;temperature;humidity
79540;BME280;68991;52.122;5.406;2023-07-02T00:02:03;100799.16;;;22.85;61.56
79540;BME280;68991;52.122;5.406;2023-07-02T00:04:29;100791.97;;;22.84;61.45
79540;BME280;68991;52.122;5.406;2023-07-02T00:06:56;100781.16;;;22.83;61.54
79540;BME280;68991;52.122;5.406;2023-07-02T00:09:23;100766.75;;;22.80;61.48
79540;BME280;68991;52.122;5.406;2023-07-02T00:11:49;100781.31;;;22.81;61.30
79540;BME280;68991;52.122;5.406;2023-07-02T00:14:16;100792.44;;;22.79;61.25
79540;BME280;68991;52.122;5.406;2023-07-02T00:16:44;100784.22;;;22.79;61.69
79540;BME280;68991;52.122;5.406;2023-07-02T00:19:13;100799.97;;;22.77;61.54
79540;BME280;68991;52.122;5.406;2023-07-02T00:21:40;100808.19;;;22.77;61.54
79540;BME280;68991;52.122;5.406;2023-07-02T00:24:08;100806.47;;;22.76;61.34
79540;BME280;68991;52.122;5.406;2023-07-02T00:26:38;100811.06;;;22.76;61.27
79540;BME280;68991;52.122;5.406;2023-07-02T00:29:06;100805.72;;;22.74;61.39
79540;BME280;68991;52.122;5.406;2023-07-02T00:31:34;100814.81;;;22.75;61.44
79540;BME280;68991;52.122;5.406;2023-07-02T00:34:01;100817.75;;;22.73;61.16
79540;BME280;68991;52.122;5.406;2023-07-02T00:36:28;100822.34;;;22.73;61.29
79540;BME280;68991;52.122;5.406;2023-07-02T00:38:56;100816.00;;;22.72;61.47
79540;BME280;68991;52.122;5.406;2023-07-02T00:41:22;100816.16;;;22.71;61.30
79540;BME280;68991;52.122;5.406;2023-07-02T00:43:49;100824.38;;;22.71;61.28
79540;BME280;68991;52.122;5.406;2023-07-02T00:46:17;100817.19;;;22.70;61.36
79540;BME280;68991;52.122;5.406;2023-07-02T00:48:49;100821.81;;;22.69;61.33
79540;BME280;68991;52.122;5.406;2023-07-02T00:51:24;100820.94;;;22.69;61.14
79540;BME280;68991;52.122;5.406;2023-07-02T00:53:56;100829.31;;;22.67;61.39
79540;BME280;68991;52.122;5.406;2023-07-02T00:56:24;100823.81;;;22.67;61.19
79540;BME280;68991;52.122;5.406;2023-07-02T00:58:53;100822.09;;;22.66;61.10
79540;BME280;68991;52.122;5.406;2023-07-02T01:01:21;100825.84;;;22.65;61.23
79540;BME280;68991;52.122;5.406;2023-07-02T01:03:52;100826.84;;;22.64;61.33
79540;BME280;68991;52.122;5.406;2023-07-02T01:06:23;100829.59;;;22.64;61.12
79540;BME280;68991;52.122;5.406;2023-07-02T01:08:53;100836.94;;;22.64;61.29
79540;BME280;68991;52.122;5.406;2023-07-02T01:11:22;100833.38;;;22.63;61.14
79540;BME280;68991;52.122;5.406;2023-07-02T01:13:52;100828.88;;;22.62;61.50
79540;BME280;68991;52.122;5.406;2023-07-02T01:16:20;100833.50;;;22.62;61.06
79540;BME280;68991;52.122;5.406;2023-07-02T01:18:49;100825.41;;;22.60;61.08
79540;BME280;68991;52.122;5.406;2023-07-02T01:21:23;100833.63;;;22.60;61.57
79540;BME280;68991;52.122;5.406;2023-07-02T01:23:50;100830.06;;;22.60;61.50
79540;BME280;68991;52.122;5.406;2023-07-02T01:26:18;100831.06;;;22.59;61.46
79540;BME280;68991;52.122;5.406;2023-07-02T01:28:44;100833.81;;;22.59;61.18
79540;BME280;68991;52.122;5.406;2023-07-02T01:31:11;100838.56;;;22.57;61.50
79540;BME280;68991;52.122;5.406;2023-07-02T01:33:38;100832.25;;;22.56;61.46
79540;BME280;68991;52.122;5.406;2023-07-02T01:36:05;100842.34;;;22.56;61.21
79540;BME280;68991;52.122;5.406;2023-07-02T01:38:32;100841.47;;;22.55;61.43
79540;BME280;68991;52.122;5.406;2023-07-02T01:40:58;100840.75;;;22.53;61.45
79540;BME280;68991;52.122;5.406;2023-07-02T01:43:25;100843.50;;;22.53;61.36
79540;BME280;68991;52.122;5.406;2023-07-02T01:45:51;100846.22;;;22.53;61.47
79540;BME280;68991;52.122;5.406;2023-07-02T01:48:18;100831.84;;;22.51;61.09
79540;BME280;68991;52.122;5.406;2023-07-02T01:50:44;100832.84;;;22.50;60.99
79540;BME280;68991;52.122;5.406;2023-07-02T01:53:11;100850.16;;;22.51;61.21
79540;BME280;68991;52.122;5.406;2023-07-02T01:55:37;100851.16;;;22.50;61.16
79540;BME280;68991;52.122;5.406;2023-07-02T01:58:04;100853.06;;;22.49;60.99
79540;BME280;68991;52.122;5.406;2023-07-02T02:00:30;100845.84;;;22.48;61.37
79540;BME280;68991;52.122;5.406;2023-07-02T02:02:57;100846.00;;;22.47;61.06
79540;BME280;68991;52.122;5.406;2023-07-02T02:05:23;100846.16;;;22.45;61.30
79540;BME280;68991;52.122;5.406;2023-07-02T02:07:50;100850.78;;;22.45;61.14
79540;BME280;68991;52.122;5.406;2023-07-02T02:10:16;100849.91;;;22.44;61.21
79540;BME280;68991;52.122;5.406;2023-07-02T02:12:43;100852.78;;;22.43;61.45
79540;BME280;68991;52.122;5.406;2023-07-02T02:15:10;100851.94;;;22.42;61.01
79540;BME280;68991;52.122;5.406;2023-07-02T02:17:38;100853.97;;;22.40;61.13
79540;BME280;68991;52.122;5.406;2023-07-02T02:20:05;100848.47;;;22.40;61.58
79540;BME280;68991;52.122;5.406;2023-07-02T02:22:32;100859.63;;;22.39;61.10
79540;BME280;68991;52.122;5.406;2023-07-02T02:24:58;100857.72;;;22.39;61.06
79540;BME280;68991;52.122;5.406;2023-07-02T02:27:25;100860.63;;;22.38;61.33
79540;BME280;68991;52.122;5.406;2023-07-02T02:29:51;100855.28;;;22.36;61.28
79540;BME280;68991;52.122;5.406;2023-07-02T02:32:18;100859.88;;;22.36;61.28
79540;BME280;68991;52.122;5.406;2023-07-02T02:34:46;100868.09;;;22.36;61.06
79540;BME280;68991;52.122;5.406;2023-07-02T02:37:12;100861.94;;;22.33;60.85
79540;BME280;68991;52.122;5.406;2023-07-02T02:39:39;100863.81;;;22.33;61.13
79540;BME280;68991;52.122;5.406;2023-07-02T02:42:05;100867.53;;;22.32;61.25
79540;BME280;68991;52.122;5.406;2023-07-02T02:44:32;100870.28;;;22.32;61.31
79540;BME280;68991;52.122;5.406;2023-07-02T02:46:58;100868.59;;;22.31;60.86
79540;BME280;68991;52.122;5.406;2023-07-02T02:49:26;100875.06;;;22.30;60.78
79540;BME280;68991;52.122;5.406;2023-07-02T02:51:52;100881.56;;;22.29;61.37
79540;BME280;68991;52.122;5.406;2023-07-02T02:54:19;100877.09;;;22.28;61.01
79540;BME280;68991;52.122;5.406;2023-07-02T02:56:45;100878.13;;;22.27;60.94
79540;BME280;68991;52.122;5.406;2023-07-02T02:59:12;100875.38;;;22.27;61.18
79540;BME280;68991;52.122;5.406;2023-07-02T03:01:38;100876.38;;;22.26;61.26
79540;BME280;68991;52.122;5.406;2023-07-02T03:04:05;100883.72;;;22.25;61.30
79540;BME280;68991;52.122;5.406;2023-07-02T03:06:34;100883.91;;;22.24;61.07
79540;BME280;68991;52.122;5.406;2023-07-02T03:09:01;100884.91;;;22.23;61.09
79540;BME280;68991;52.122;5.406;2023-07-02T03:11:27;100888.66;;;22.22;61.08
79540;BME280;68991;52.122;5.406;2023-07-02T03:13:54;100886.78;;;22.22;60.76
79540;BME280;68991;52.122;5.406;2023-07-02T03:16:21;100887.78;;;22.21;61.24
79540;BME280;68991;52.122;5.406;2023-07-02T03:18:48;100894.28;;;22.20;61.52
79540;BME280;68991;52.122;5.406;2023-07-02T03:21:14;100892.56;;;22.19;60.80
79540;BME280;68991;52.122;5.406;2023-07-02T03:23:41;100901.78;;;22.18;60.73
79540;BME280;68991;52.122;5.406;2023-07-02T03:26:07;100894.59;;;22.17;61.36
79540;BME280;68991;52.122;5.406;2023-07-02T03:28:34;100902.94;;;22.16;60.91
79540;BME280;68991;52.122;5.406;2023-07-02T03:31:01;100901.06;;;22.16;61.20
79540;BME280;68991;52.122;5.406;2023-07-02T03:33:27;100903.94;;;22.15;60.71
79540;BME280;68991;52.122;5.406;2023-07-02T03:35:54;100900.34;;;22.14;61.13
79540;BME280;68991;52.122;5.406;2023-07-02T03:38:20;100900.50;;;22.13;60.82
79540;BME280;68991;52.122;5.406;2023-07-02T03:40:47;100898.78;;;22.12;60.70
79540;BME280;68991;52.122;5.406;2023-07-02T03:43:14;100897.91;;;22.11;60.87
79540;BME280;68991;52.122;5.406;2023-07-02T03:45:41;100901.50;;;22.12;60.98
79540;BME280;68991;52.122;5.406;2023-07-02T03:48:07;100910.72;;;22.11;60.67
79540;BME280;68991;52.122;5.406;2023-07-02T03:50:34;100911.78;;;22.10;60.92
79540;BME280;68991;52.122;5.406;2023-07-02T03:53:00;100914.50;;;22.10;61.16
79540;BME280;68991;52.122;5.406;2023-07-02T03:55:27;100914.63;;;22.08;60.67
79540;BME280;68991;52.122;5.406;2023-07-02T03:57:53;100913.78;;;22.08;61.11
79540;BME280;68991;52.122;5.406;2023-07-02T04:00:20;100919.25;;;22.08;60.78
79540;BME280;68991;52.122;5.406;2023-07-02T04:02:46;100911.19;;;22.06;60.71
79540;BME280;68991;52.122;5.406;2023-07-02T04:05:13;100921.13;;;22.07;60.51
79540;BME280;68991;52.122;5.406;2023-07-02T04:07:39;100921.28;;;22.06;60.26
79540;BME280;68991;52.122;5.406;2023-07-02T04:10:06;100925.75;;;22.07;60.24
79540;BME280;68991;52.122;5.406;2023-07-02T04:12:33;100928.19;;;22.10;60.84
79540;BME280;68991;52.122;5.406;2023-07-02T04:14:59;100928.91;;;22.12;60.57
79540;BME280;68991;52.122;5.406;2023-07-02T04:17:26;100924.16;;;22.14;61.01
79540;BME280;68991;52.122;5.406;2023-07-02T04:19:54;100921.25;;;22.15;60.71
79540;BME280;68991;52.122;5.406;2023-07-02T04:22:21;100934.81;;;22.17;61.32
79540;BME280;68991;52.122;5.406;2023-07-02T04:24:47;100940.97;;;22.19;60.91
79540;BME280;68991;52.122;5.406;2023-07-02T04:27:16;100944.47;;;22.21;61.55
79540;BME280;68991;52.122;5.406;2023-07-02T04:30:05;100942.56;;;22.21;61.50
79540;BME280;68991;52.122;5.406;2023-07-02T04:32:34;100935.94;;;22.24;61.53
79540;BME280;68991;52.122;5.406;2023-07-02T04:35:01;100933.34;;;22.22;61.39
79540;BME280;68991;52.122;5.406;2023-07-02T04:37:27;100941.41;;;22.24;61.34
79540;BME280;68991;52.122;5.406;2023-07-02T04:39:54;100951.34;;;22.25;61.18
79540;BME280;68991;52.122;5.406;2023-07-02T04:42:21;100950.50;;;22.24;61.34
79540;BME280;68991;52.122;5.406;2023-07-02T04:44:48;100949.63;;;22.24;61.10
79540;BME280;68991;52.122;5.406;2023-07-02T04:47:14;100952.38;;;22.24;61.12
79540;BME280;68991;52.122;5.406;2023-07-02T04:49:41;100948.59;;;22.25;61.20
79540;BME280;68991;52.122;5.406;2023-07-02T04:52:07;100959.41;;;22.26;61.33
79540;BME280;68991;52.122;5.406;2023-07-02T04:54:34;100947.28;;;22.29;61.54
79540;BME280;68991;52.122;5.406;2023-07-02T04:57:00;100950.75;;;22.31;61.79
79540;BME280;68991;52.122;5.406;2023-07-02T04:59:26;100959.84;;;22.31;61.88
79540;BME280;68991;52.122;5.406;2023-07-02T05:01:53;100956.94;;;22.33;61.67
79540;BME280;68991;52.122;5.406;2023-07-02T05:04:20;100962.28;;;22.35;61.46
79540;BME280;68991;52.122;5.406;2023-07-02T05:06:46;100965.03;;;22.35;61.35
79540;BME280;68991;52.122;5.406;2023-07-02T05:09:13;100962.28;;;22.35;61.42
79540;BME280;68991;52.122;5.406;2023-07-02T05:11:39;100962.28;;;22.35;61.19
79540;BME280;68991;52.122;5.406;2023-07-02T05:14:06;100967.59;;;22.36;61.18
79540;BME280;68991;52.122;5.406;2023-07-02T05:16:32;100960.41;;;22.35;61.33
79540;BME280;68991;52.122;5.406;2023-07-02T05:18:59;100965.91;;;22.35;60.98
79540;BME280;68991;52.122;5.406;2023-07-02T05:21:25;100969.63;;;22.34;61.33
79540;BME280;68991;52.122;5.406;2023-07-02T05:23:52;100975.25;;;22.32;60.83
79540;BME280;68991;52.122;5.406;2023-07-02T05:26:18;100967.91;;;22.33;60.99
79540;BME280;68991;52.122;5.406;2023-07-02T05:28:45;100963.44;;;22.32;60.64
79540;BME280;68991;52.122;5.406;2023-07-02T05:31:11;100966.16;;;22.32;60.04
79540;BME280;68991;52.122;5.406;2023-07-02T05:33:38;100974.38;;;22.32;60.66
79540;BME280;68991;52.122;5.406;2023-07-02T05:36:05;100969.94;;;22.31;60.80
79540;BME280;68991;52.122;5.406;2023-07-02T05:38:32;100978.16;;;22.31;60.48
79540;BME280;68991;52.122;5.406;2023-07-02T05:40:58;100975.41;;;22.31;60.59
79540;BME280;68991;52.122;5.406;2023-07-02T05:43:25;100986.38;;;22.31;60.82
79540;BME280;68991;52.122;5.406;2023-07-02T05:45:51;100989.81;;;22.33;60.71
79540;BME280;68991;52.122;5.406;2023-07-02T05:48:18;100984.50;;;22.31;60.55
79540;BME280;68991;52.122;5.406;2023-07-02T05:50:45;100983.63;;;22.31;60.68
79540;BME280;68991;52.122;5.406;2023-07-02T05:53:12;100990.13;;;22.30;60.57
79540;BME280;68991;52.122;5.406;2023-07-02T05:55:38;100994.59;;;22.31;60.36
79540;BME280;68991;52.122;5.406;2023-07-02T05:58:05;100990.13;;;22.30;60.33
79540;BME280;68991;52.122;5.406;2023-07-02T06:00:32;100996.47;;;22.30;60.49
79540;BME280;68991;52.122;5.406;2023-07-02T06:02:58;100996.47;;;22.30;60.46
79540;BME280;68991;52.122;5.406;2023-07-02T06:05:25;100999.19;;;22.30;60.19
79540;BME280;68991;52.122;5.406;2023-07-02T06:07:52;101005.56;;;22.31;59.94
79540;BME280;68991;52.122;5.406;2023-07-02T06:10:18;101000.22;;;22.29;60.08
79540;BME280;68991;52.122;5.406;2023-07-02T06:12:45;101006.41;;;22.31;59.83
79540;BME280;68991;52.122;5.406;2023-07-02T06:15:11;101003.81;;;22.30;60.07
79540;BME280;68991;52.122;5.406;2023-07-02T06:17:38;101006.41;;;22.31;59.99
79540;BME280;68991;52.122;5.406;2023-07-02T06:20:05;101008.28;;;22.31;60.03
79540;BME280;68991;52.122;5.406;2023-07-02T06:22:32;101015.47;;;22.32;59.58
79540;BME280;68991;52.122;5.406;2023-07-02T06:24:58;101010.00;;;22.32;60.16
79540;BME280;68991;52.122;5.406;2023-07-02T06:27:29;101009.16;;;22.31;59.97
79540;BME280;68991;52.122;5.406;2023-07-02T06:29:55;101015.34;;;22.33;60.34
79540;BME280;68991;52.122;5.406;2023-07-02T06:32:21;101013.47;;;22.34;59.92
79540;BME280;68991;52.122;5.406;2023-07-02T06:34:48;101011.59;;;22.35;59.98
79540;BME280;68991;52.122;5.406;2023-07-02T06:37:15;101016.91;;;22.36;59.67
79540;BME280;68991;52.122;5.406;2023-07-02T06:39:41;101016.91;;;22.36;59.56
79540;BME280;68991;52.122;5.406;2023-07-02T06:42:08;101016.91;;;22.36;59.54
79540;BME280;68991;52.122;5.406;2023-07-02T06:44:34;101022.38;;;22.36;59.70
79540;BME280;68991;52.122;5.406;2023-07-02T06:47:01;101028.75;;;22.37;59.62
79540;BME280;68991;52.122;5.406;2023-07-02T06:49:27;101033.34;;;22.36;59.62
79540;BME280;68991;52.122;5.406;2023-07-02T06:51:53;101036.09;;;22.36;59.79
79540;BME280;68991;52.122;5.406;2023-07-02T06:54:20;101034.09;;;22.38;59.59
79540;BME280;68991;52.122;5.406;2023-07-02T06:56:46;101038.69;;;22.38;59.51
79540;BME280;68991;52.122;5.406;2023-07-02T06:59:18;101042.31;;;22.38;59.40
79540;BME280;68991;52.122;5.406;2023-07-02T07:01:46;101047.78;;;22.38;59.48
79540;BME280;68991;52.122;5.406;2023-07-02T07:04:12;101044.00;;;22.39;59.31
79540;BME280;68991;52.122;5.406;2023-07-02T07:06:39;101058.56;;;22.40;59.13
79540;BME280;68991;52.122;5.406;2023-07-02T07:09:05;101061.19;;;22.41;59.02
79540;BME280;68991;52.122;5.406;2023-07-02T07:11:32;101054.84;;;22.41;58.99
79540;BME280;68991;52.122;5.406;2023-07-02T07:13:58;101056.41;;;22.43;58.88
79540;BME280;68991;52.122;5.406;2023-07-02T07:16:25;101060.19;;;22.42;58.84
79540;BME280;68991;52.122;5.406;2023-07-02T07:18:51;101057.44;;;22.42;58.81
79540;BME280;68991;52.122;5.406;2023-07-02T07:21:18;101069.09;;;22.44;59.05
79540;BME280;68991;52.122;5.406;2023-07-02T07:23:44;101075.28;;;22.46;58.62
79540;BME280;68991;52.122;5.406;2023-07-02T07:26:11;101077.19;;;22.46;58.51
79540;BME280;68991;52.122;5.406;2023-07-02T07:28:37;101078.91;;;22.47;58.63
79540;BME280;68991;52.122;5.406;2023-07-02T07:31:04;101077.03;;;22.47;58.15
79540;BME280;68991;52.122;5.406;2023-07-02T07:33:30;101086.97;;;22.48;58.53
79540;BME280;68991;52.122;5.406;2023-07-02T07:35:57;101081.50;;;22.48;58.45
79540;BME280;68991;52.122;5.406;2023-07-02T07:38:24;101087.84;;;22.49;58.42
79540;BME280;68991;52.122;5.406;2023-07-02T07:40:50;101080.50;;;22.49;58.21
79540;BME280;68991;52.122;5.406;2023-07-02T07:43:17;101080.34;;;22.51;58.21
79540;BME280;68991;52.122;5.406;2023-07-02T07:45:43;101087.56;;;22.52;58.09
79540;BME280;68991;52.122;5.406;2023-07-02T07:48:10;101089.28;;;22.53;57.88
79540;BME280;68991;52.122;5.406;2023-07-02T07:50:36;101085.69;;;22.52;58.08
79540;BME280;68991;52.122;5.406;2023-07-02T07:53:03;101089.28;;;22.53;57.97
79540;BME280;68991;52.122;5.406;2023-07-02T07:55:29;101096.47;;;22.54;58.27
79540;BME280;68991;52.122;5.406;2023-07-02T07:57:56;101099.22;;;22.54;57.77
79540;BME280;68991;52.122;5.406;2023-07-02T08:00:22;101086.38;;;22.54;57.34
79540;BME280;68991;52.122;5.406;2023-07-02T08:02:50;101096.47;;;22.54;57.17
79540;BME280;68991;52.122;5.406;2023-07-02T08:05:18;101098.22;;;22.55;57.55
79540;BME280;68991;52.122;5.406;2023-07-02T08:07:45;101094.59;;;22.54;57.48
79540;BME280;68991;52.122;5.406;2023-07-02T08:10:11;101098.22;;;22.55;57.46
79540;BME280;68991;52.122;5.406;2023-07-02T08:12:38;101095.47;;;22.55;57.30
79540;BME280;68991;52.122;5.406;2023-07-02T08:15:05;101099.94;;;22.56;57.18
79540;BME280;68991;52.122;5.406;2023-07-02T08:17:32;101097.03;;;22.57;57.04
79540;BME280;68991;52.122;5.406;2023-07-02T08:19:58;101101.53;;;22.58;57.02
79540;BME280;68991;52.122;5.406;2023-07-02T08:22:25;101100.53;;;22.59;57.27
79540;BME280;68991;52.122;5.406;2023-07-02T08:24:51;101111.47;;;22.59;56.87
79540;BME280;68991;52.122;5.406;2023-07-02T08:27:18;101104.13;;;22.60;56.77
79540;BME280;68991;52.122;5.406;2023-07-02T08:29:47;101106.72;;;22.61;56.64
79540;BME280;68991;52.122;5.406;2023-07-02T08:32:14;101102.97;;;22.62;56.57
79540;BME280;68991;52.122;5.406;2023-07-02T08:34:41;101109.16;;;22.64;56.76
79540;BME280;68991;52.122;5.406;2023-07-02T08:37:07;101111.88;;;22.64;57.14
79540;BME280;68991;52.122;5.406;2023-07-02T08:39:34;101115.50;;;22.65;56.69
79540;BME280;68991;52.122;5.406;2023-07-02T08:42:02;101130.06;;;22.65;56.67
79540;BME280;68991;52.122;5.406;2023-07-02T08:44:29;101120.97;;;22.65;56.77
79540;BME280;68991;52.122;5.406;2023-07-02T08:46:55;101125.31;;;22.67;56.75
79540;BME280;68991;52.122;5.406;2023-07-02T08:49:23;101124.19;;;22.70;56.48
79540;BME280;68991;52.122;5.406;2023-07-02T08:51:50;101131.38;;;22.71;56.22
79540;BME280;68991;52.122;5.406;2023-07-02T08:54:19;101119.56;;;22.70;56.52
79540;BME280;68991;52.122;5.406;2023-07-02T08:56:46;101133.28;;;22.70;56.37
79540;BME280;68991;52.122;5.406;2023-07-02T08:59:13;101138.59;;;22.72;56.50
79540;BME280;68991;52.122;5.406;2023-07-02T09:01:51;101131.94;;;22.74;56.47
79540;BME280;68991;52.122;5.406;2023-07-02T09:04:19;101126.47;;;22.74;56.39
79540;BME280;68991;52.122;5.406;2023-07-02T09:06:47;101131.81;;;22.76;56.65
79540;BME280;68991;52.122;5.406;2023-07-02T09:09:14;101126.03;;;22.79;56.33
79540;BME280;68991;52.122;5.406;2023-07-02T09:11:48;101138.72;;;22.80;56.43
79540;BME280;68991;52.122;5.406;2023-07-02T09:14:29;101140.75;;;22.78;56.18
79540;BME280;68991;52.122;5.406;2023-07-02T09:17:08;101150.88;;;22.77;56.16
79540;BME280;68991;52.122;5.406;2023-07-02T09:19:36;101142.78;;;22.76;56.13
79540;BME280;68991;52.122;5.406;2023-07-02T09:22:03;101142.34;;;22.80;56.16
79540;BME280;68991;52.122;5.406;2023-07-02T09:24:31;101141.03;;;22.85;56.06
79540;BME280;68991;52.122;5.406;2023-07-02T09:27:00;101134.22;;;22.89;56.01
79540;BME280;68991;52.122;5.406;2023-07-02T09:29:31;101135.09;;;22.89;55.59
79540;BME280;68991;52.122;5.406;2023-07-02T09:32:04;101137.69;;;22.91;55.72
79540;BME280;68991;52.122;5.406;2023-07-02T09:34:38;101139.13;;;22.95;55.60
79540;BME280;68991;52.122;5.406;2023-07-02T09:37:06;101137.09;;;22.97;55.61
79540;BME280;68991;52.122;5.406;2023-07-02T09:39:34;101146.06;;;22.99;55.37
79540;BME280;68991;52.122;5.406;2023-07-02T09:42:05;101138.84;;;22.98;55.46
79540;BME280;68991;52.122;5.406;2023-07-02T09:44:33;101135.78;;;23.01;55.54
79540;BME280;68991;52.122;5.406;2023-07-02T09:47:05;101140.56;;;22.99;55.22
79540;BME280;68991;52.122;5.406;2023-07-02T09:49:34;101135.91;;;22.99;55.06
79540;BME280;68991;52.122;5.406;2023-07-02T09:52:02;101137.34;;;23.03;54.81
79540;BME280;68991;52.122;5.406;2023-07-02T09:54:29;101141.84;;;23.04;54.93
79540;BME280;68991;52.122;5.406;2023-07-02T09:56:58;101142.41;;;23.08;55.01
79540;BME280;68991;52.122;5.406;2023-07-02T09:59:25;101147.75;;;23.09;55.00
79540;BME280;68991;52.122;5.406;2023-07-02T10:01:51;101149.47;;;23.10;54.96
79540;BME280;68991;52.122;5.406;2023-07-02T10:04:19;101142.97;;;23.11;54.86
79540;BME280;68991;52.122;5.406;2023-07-02T10:06:51;101144.53;;;23.14;54.87
79540;BME280;68991;52.122;5.406;2023-07-02T10:09:19;101156.94;;;23.18;54.57
79540;BME280;68991;52.122;5.406;2023-07-02T10:11:46;101153.91;;;23.21;54.65
79540;BME280;68991;52.122;5.406;2023-07-02T10:14:13;101147.72;;;23.19;54.11
79540;BME280;68991;52.122;5.406;2023-07-02T10:16:54;101154.06;;;23.19;54.48
79540;BME280;68991;52.122;5.406;2023-07-02T10:19:21;101154.94;;;23.20;54.21
79540;BME280;68991;52.122;5.406;2023-07-02T10:22:01;101159.38;;;23.21;54.36
79540;BME280;68991;52.122;5.406;2023-07-02T10:24:28;101171.09;;;23.23;54.24
79540;BME280;68991;52.122;5.406;2023-07-02T10:26:56;101164.88;;;23.21;54.02
79540;BME280;68991;52.122;5.406;2023-07-02T10:29:25;101167.31;;;23.24;54.45
79540;BME280;68991;52.122;5.406;2023-07-02T10:31:53;101163.25;;;23.28;54.03
79540;BME280;68991;52.122;5.406;2023-07-02T10:36:56;101167.28;;;23.34;53.26
79540;BME280;68991;52.122;5.406;2023-07-02T10:39:22;101175.53;;;23.34;53.45
79540;BME280;68991;52.122;5.406;2023-07-02T10:41:49;101171.78;;;23.35;53.56
79540;BME280;68991;52.122;5.406;2023-07-02T10:44:15;101172.91;;;23.32;53.24
79540;BME280;68991;52.122;5.406;2023-07-02T10:46:49;101171.03;;;23.33;53.28
79540;BME280;68991;52.122;5.406;2023-07-02T10:49:17;101170.44;;;23.39;53.25
79540;BME280;68991;52.122;5.406;2023-07-02T10:51:44;101171.59;;;23.46;52.81
79540;BME280;68991;52.122;5.406;2023-07-02T10:54:10;101163.53;;;23.44;53.19
79540;BME280;68991;52.122;5.406;2023-07-02T10:56:37;101168.69;;;23.47;53.37
79540;BME280;68991;52.122;5.406;2023-07-02T10:59:04;101174.63;;;23.52;52.91
79540;BME280;68991;52.122;5.406;2023-07-02T11:01:31;101173.56;;;23.53;53.10
79540;BME280;68991;52.122;5.406;2023-07-02T11:03:59;101179.06;;;23.53;52.93
79540;BME280;68991;52.122;5.406;2023-07-02T11:06:30;101189.50;;;23.50;52.83
79540;BME280;68991;52.122;5.406;2023-07-02T11:08:59;101178.50;;;23.50;53.12
79540;BME280;68991;52.122;5.406;2023-07-02T11:11:26;101180.94;;;23.53;53.15
79540;BME280;68991;52.122;5.406;2023-07-02T11:13:53;101186.59;;;23.51;53.11
79540;BME280;68991;52.122;5.406;2023-07-02T11:16:27;101178.50;;;23.50;53.12
79540;BME280;68991;52.122;5.406;2023-07-02T11:19:15;101189.34;;;23.51;53.32
79540;BME280;68991;52.122;5.406;2023-07-02T11:21:54;101180.81;;;23.54;52.98
79540;BME280;68991;52.122;5.406;2023-07-02T11:24:35;101188.03;;;23.55;52.92
79540;BME280;68991;52.122;5.406;2023-07-02T11:27:05;101182.53;;;23.55;52.90
79540;BME280;68991;52.122;5.406;2023-07-02T11:29:33;101182.53;;;23.55;53.17
79540;BME280;68991;52.122;5.406;2023-07-02T11:32:10;101186.28;;;23.54;53.11
79540;BME280;68991;52.122;5.406;2023-07-02T11:34:38;101190.03;;;23.63;52.65
79540;BME280;68991;52.122;5.406;2023-07-02T11:37:05;101190.41;;;23.68;52.64
79540;BME280;68991;52.122;5.406;2023-07-02T11:39:32;101191.69;;;23.73;52.87
79540;BME280;68991;52.122;5.406;2023-07-02T11:41:58;101195.56;;;23.81;52.47
79540;BME280;68991;52.122;5.406;2023-07-02T11:44:25;101184.09;;;23.85;52.09
79540;BME280;68991;52.122;5.406;2023-07-02T11:46:52;101186.41;;;23.90;51.94
79540;BME280;68991;52.122;5.406;2023-07-02T11:49:19;101183.88;;;23.96;51.95
79540;BME280;68991;52.122;5.406;2023-07-02T11:51:45;101191.69;;;24.01;52.11
79540;BME280;68991;52.122;5.406;2023-07-02T11:54:15;101190.34;;;24.05;51.80
79540;BME280;68991;52.122;5.406;2023-07-02T11:56:42;101192.94;;;24.06;52.17
79540;BME280;68991;52.122;5.406;2023-07-02T11:59:09;101183.44;;;24.01;51.52
79540;BME280;68991;52.122;5.406;2023-07-02T12:01:36;101198.81;;;23.94;51.63
79540;BME280;68991;52.122;5.406;2023-07-02T12:04:02;101189.13;;;23.90;52.14
79540;BME280;68991;52.122;5.406;2023-07-02T12:06:29;101200.44;;;23.87;52.31
79540;BME280;68991;52.122;5.406;2023-07-02T12:08:55;101207.13;;;23.84;52.42
79540;BME280;68991;52.122;5.406;2023-07-02T12:11:22;101204.38;;;23.84;52.30
79540;BME280;68991;52.122;5.406;2023-07-02T12:13:48;101209.84;;;23.84;52.15
79540;BME280;68991;52.122;5.406;2023-07-02T12:16:15;101201.63;;;23.84;51.83
79540;BME280;68991;52.122;5.406;2023-07-02T12:18:41;101210.56;;;23.86;51.47
79540;BME280;68991;52.122;5.406;2023-07-02T12:21:08;101212.13;;;23.89;51.50
79540;BME280;68991;52.122;5.406;2023-07-02T12:23:34;101210.09;;;23.91;51.35
79540;BME280;68991;52.122;5.406;2023-07-02T12:26:01;101216.84;;;23.96;51.40
79540;BME280;68991;52.122;5.406;2023-07-02T12:28:27;101201.94;;;23.99;51.06
79540;BME280;68991;52.122;5.406;2023-07-02T12:30:54;101215.84;;;23.97;51.54
79540;BME280;68991;52.122;5.406;2023-07-02T12:33:20;101214.09;;;23.96;51.20
79540;BME280;68991;52.122;5.406;2023-07-02T12:35:47;101222.34;;;23.96;51.07
79540;BME280;68991;52.122;5.406;2023-07-02T12:38:14;101208.16;;;24.01;51.08
79540;BME280;68991;52.122;5.406;2023-07-02T12:40:40;101198.09;;;24.09;50.86
79540;BME280;68991;52.122;5.406;2023-07-02T12:43:07;101210.97;;;24.18;50.98
79540;BME280;68991;52.122;5.406;2023-07-02T12:45:33;101214.28;;;24.22;50.83
79540;BME280;68991;52.122;5.406;2023-07-02T12:48:00;101205.72;;;24.25;50.89
79540;BME280;68991;52.122;5.406;2023-07-02T12:50:26;101209.88;;;24.29;51.02
79540;BME280;68991;52.122;5.406;2023-07-02T12:52:53;101221.75;;;24.30;50.86
79540;BME280;68991;52.122;5.406;2023-07-02T12:55:19;101224.00;;;24.34;50.50